Terminal Aerodrome Forecast
Issued by NWS

Home | Current Version | Previous Version | Text Only | Print | Product List | Glossary On
Versions: 1 2 3 4 5 6 7 8 9 10 11 12 13 14
000
FTUS43 KEAX 190829 AAB
TAFSTJ
TAF AMD
KSTJ 190829Z 1908/2006 16005KT P6SM VCTS BKN080CB
      TEMPO 1908/1912 6SM -TSRA
     FM191200 17008KT P6SM SCT080
     FM191600 21009KT P6SM FEW200=

USA.gov is the U.S. government's official web portal to all federal, state and local government web resources and services.